sensor_id;sensor_type;location;lat;lon;timestamp;temperature;humidity
20520;DHT22;53432;51.952;14.740;2022-09-01T00:01:46;16.90;99.90
20520;DHT22;53432;51.952;14.740;2022-09-01T00:04:16;16.80;99.90
20520;DHT22;53432;51.952;14.740;2022-09-01T00:06:45;16.80;99.90
20520;DHT22;53432;51.952;14.740;2022-09-01T00:09:14;16.80;99.90
20520;DHT22;53432;51.952;14.740;2022-09-01T00:11:46;16.80;99.90
20520;DHT22;53432;51.952;14.740;2022-09-01T00:14:14;16.80;99.90
20520;DHT22;53432;51.952;14.740;2022-09-01T00:16:41;16.80;99.90
20520;DHT22;53432;51.952;14.740;2022-09-01T00:19:08;16.80;99.90
20520;DHT22;53432;51.952;14.740;2022-09-01T00:21:38;16.80;99.90
20520;DHT22;53432;51.952;14.740;2022-09-01T00:24:06;16.80;99.90
20520;DHT22;53432;51.952;14.740;2022-09-01T00:26:33;16.80;99.90
20520;DHT22;53432;51.952;14.740;2022-09-01T00:29:02;16.80;99.90
20520;DHT22;53432;51.952;14.740;2022-09-01T00:31:30;16.80;99.90
20520;DHT22;53432;51.952;14.740;2022-09-01T00:33:58;16.80;99.90
20520;DHT22;53432;51.952;14.740;2022-09-01T00:36:26;16.80;99.90
20520;DHT22;53432;51.952;14.740;2022-09-01T00:38:53;16.70;99.90
20520;DHT22;53432;51.952;14.740;2022-09-01T00:41:23;16.80;99.90
20520;DHT22;53432;51.952;14.740;2022-09-01T00:43:52;16.80;99.90
20520;DHT22;53432;51.952;14.740;2022-09-01T00:46:23;16.70;99.90
20520;DHT22;53432;51.952;14.740;2022-09-01T00:48:55;16.80;99.90
20520;DHT22;53432;51.952;14.740;2022-09-01T00:51:23;16.80;99.90
20520;DHT22;53432;51.952;14.740;2022-09-01T00:53:50;16.80;99.90
20520;DHT22;53432;51.952;14.740;2022-09-01T00:56:21;16.80;99.90
20520;DHT22;53432;51.952;14.740;2022-09-01T00:58:50;16.80;99.90
20520;DHT22;53432;51.952;14.740;2022-09-01T01:01:20;16.80;99.90
20520;DHT22;53432;51.952;14.740;2022-09-01T01:03:48;16.80;99.90
20520;DHT22;53432;51.952;14.740;2022-09-01T01:06:16;16.80;99.90
20520;DHT22;53432;51.952;14.740;2022-09-01T01:08:46;16.80;99.90
20520;DHT22;53432;51.952;14.740;2022-09-01T01:11:25;16.80;99.90
20520;DHT22;53432;51.952;14.740;2022-09-01T01:13:57;16.80;99.90
20520;DHT22;53432;51.952;14.740;2022-09-01T01:16:27;16.70;99.90
20520;DHT22;53432;51.952;14.740;2022-09-01T01:18:55;16.70;99.90
20520;DHT22;53432;51.952;14.740;2022-09-01T01:21:32;16.60;99.90
20520;DHT22;53432;51.952;14.740;2022-09-01T01:24:23;16.60;99.90
20520;DHT22;53432;51.952;14.740;2022-09-01T01:26:51;16.60;99.90
20520;DHT22;53432;51.952;14.740;2022-09-01T01:29:19;16.60;99.90
20520;DHT22;53432;51.952;14.740;2022-09-01T01:31:47;16.60;99.90
20520;DHT22;53432;51.952;14.740;2022-09-01T01:34:17;16.60;99.90
20520;DHT22;53432;51.952;14.740;2022-09-01T01:36:45;16.60;99.90
20520;DHT22;53432;51.952;14.740;2022-09-01T01:39:16;16.60;99.90
20520;DHT22;53432;51.952;14.740;2022-09-01T01:41:46;16.50;99.90
20520;DHT22;53432;51.952;14.740;2022-09-01T01:44:17;16.50;99.90
20520;DHT22;53432;51.952;14.740;2022-09-01T01:46:47;16.40;99.90
20520;DHT22;53432;51.952;14.740;2022-09-01T01:49:18;16.40;99.90
20520;DHT22;53432;51.952;14.740;2022-09-01T01:51:46;16.40;99.90
20520;DHT22;53432;51.952;14.740;2022-09-01T01:54:14;16.40;99.90
20520;DHT22;53432;51.952;14.740;2022-09-01T01:56:46;16.30;99.90
20520;DHT22;53432;51.952;14.740;2022-09-01T01:59:13;16.40;99.90
20520;DHT22;53432;51.952;14.740;2022-09-01T02:01:41;16.40;99.90
20520;DHT22;53432;51.952;14.740;2022-09-01T02:04:16;16.40;99.90
20520;DHT22;53432;51.952;14.740;2022-09-01T02:06:45;16.40;99.90
20520;DHT22;53432;51.952;14.740;2022-09-01T02:09:13;16.40;99.90
20520;DHT22;53432;51.952;14.740;2022-09-01T02:11:41;16.40;99.90
20520;DHT22;53432;51.952;14.740;2022-09-01T02:14:11;16.50;99.90
20520;DHT22;53432;51.952;14.740;2022-09-01T02:16:40;16.50;99.90
20520;DHT22;53432;51.952;14.740;2022-09-01T02:19:08;16.50;99.90
20520;DHT22;53432;51.952;14.740;2022-09-01T02:21:37;16.50;99.90
20520;DHT22;53432;51.952;14.740;2022-09-01T02:24:18;16.50;99.90
20520;DHT22;53432;51.952;14.740;2022-09-01T02:26:46;16.50;99.90
20520;DHT22;53432;51.952;14.740;2022-09-01T02:29:18;16.50;99.90
20520;DHT22;53432;51.952;14.740;2022-09-01T02:31:49;16.50;99.90
20520;DHT22;53432;51.952;14.740;2022-09-01T02:34:17;16.50;99.90
20520;DHT22;53432;51.952;14.740;2022-09-01T02:36:47;16.50;99.90
20520;DHT22;53432;51.952;14.740;2022-09-01T02:39:16;16.50;99.90
20520;DHT22;53432;51.952;14.740;2022-09-01T02:41:45;16.40;99.90
20520;DHT22;53432;51.952;14.740;2022-09-01T02:44:14;16.40;99.90
20520;DHT22;53432;51.952;14.740;2022-09-01T02:46:49;16.40;99.90
20520;DHT22;53432;51.952;14.740;2022-09-01T02:49:18;16.40;99.90
20520;DHT22;53432;51.952;14.740;2022-09-01T02:51:54;16.40;99.90
20520;DHT22;53432;51.952;14.740;2022-09-01T02:54:25;16.30;99.90
20520;DHT22;53432;51.952;14.740;2022-09-01T02:56:52;16.40;99.90
20520;DHT22;53432;51.952;14.740;2022-09-01T02:59:25;16.40;99.90
20520;DHT22;53432;51.952;14.740;2022-09-01T03:01:54;16.40;99.90
20520;DHT22;53432;51.952;14.740;2022-09-01T03:04:22;16.40;99.90
20520;DHT22;53432;51.952;14.740;2022-09-01T03:06:49;16.30;99.90
20520;DHT22;53432;51.952;14.740;2022-09-01T03:09:20;16.40;99.90
20520;DHT22;53432;51.952;14.740;2022-09-01T03:11:50;16.30;99.90
20520;DHT22;53432;51.952;14.740;2022-09-01T03:14:17;16.30;99.90
20520;DHT22;53432;51.952;14.740;2022-09-01T03:16:46;16.30;99.90
20520;DHT22;53432;51.952;14.740;2022-09-01T03:19:14;16.30;99.90
20520;DHT22;53432;51.952;14.740;2022-09-01T03:21:44;16.20;99.90
20520;DHT22;53432;51.952;14.740;2022-09-01T03:24:14;16.20;99.90
20520;DHT22;53432;51.952;14.740;2022-09-01T03:26:44;16.20;99.90
20520;DHT22;53432;51.952;14.740;2022-09-01T03:29:12;16.20;99.90
20520;DHT22;53432;51.952;14.740;2022-09-01T03:31:40;16.30;99.90
20520;DHT22;53432;51.952;14.740;2022-09-01T03:34:10;16.20;99.90
20520;DHT22;53432;51.952;14.740;2022-09-01T03:36:37;16.30;99.90
20520;DHT22;53432;51.952;14.740;2022-09-01T03:39:15;16.30;99.90
20520;DHT22;53432;51.952;14.740;2022-09-01T03:41:43;16.30;99.90
20520;DHT22;53432;51.952;14.740;2022-09-01T03:44:14;16.30;99.90
20520;DHT22;53432;51.952;14.740;2022-09-01T03:46:42;16.30;99.90
20520;DHT22;53432;51.952;14.740;2022-09-01T03:49:11;16.30;99.90
20520;DHT22;53432;51.952;14.740;2022-09-01T03:51:41;16.30;99.90
20520;DHT22;53432;51.952;14.740;2022-09-01T03:54:09;16.30;99.90
20520;DHT22;53432;51.952;14.740;2022-09-01T03:56:36;16.30;99.90
20520;DHT22;53432;51.952;14.740;2022-09-01T03:59:06;16.20;99.90
20520;DHT22;53432;51.952;14.740;2022-09-01T04:01:33;16.20;99.90
20520;DHT22;53432;51.952;14.740;2022-09-01T04:04:09;16.20;99.90
20520;DHT22;53432;51.952;14.740;2022-09-01T04:06:41;16.20;99.90
20520;DHT22;53432;51.952;14.740;2022-09-01T04:09:09;16.20;99.90
20520;DHT22;53432;51.952;14.740;2022-09-01T04:11:37;16.10;99.90
20520;DHT22;53432;51.952;14.740;2022-09-01T04:14:05;16.10;99.90
20520;DHT22;53432;51.952;14.740;2022-09-01T04:16:33;16.10;99.90
20520;DHT22;53432;51.952;14.740;2022-09-01T04:19:20;16.10;99.90
20520;DHT22;53432;51.952;14.740;2022-09-01T04:21:53;16.10;99.90
20520;DHT22;53432;51.952;14.740;2022-09-01T04:24:22;16.00;99.90
20520;DHT22;53432;51.952;14.740;2022-09-01T04:26:50;16.00;99.90
20520;DHT22;53432;51.952;14.740;2022-09-01T04:29:19;16.00;99.90
20520;DHT22;53432;51.952;14.740;2022-09-01T04:31:49;15.90;99.90
20520;DHT22;53432;51.952;14.740;2022-09-01T04:34:18;15.90;99.90
20520;DHT22;53432;51.952;14.740;2022-09-01T04:36:47;15.90;99.90
20520;DHT22;53432;51.952;14.740;2022-09-01T04:39:21;15.90;99.90
20520;DHT22;53432;51.952;14.740;2022-09-01T04:41:49;15.80;99.90
20520;DHT22;53432;51.952;14.740;2022-09-01T04:44:16;15.80;99.90
20520;DHT22;53432;51.952;14.740;2022-09-01T04:46:46;15.70;99.90
20520;DHT22;53432;51.952;14.740;2022-09-01T04:49:17;15.60;99.90
20520;DHT22;53432;51.952;14.740;2022-09-01T04:51:49;15.60;99.90
20520;DHT22;53432;51.952;14.740;2022-09-01T04:54:17;15.50;99.90
20520;DHT22;53432;51.952;14.740;2022-09-01T04:56:48;15.50;99.90
20520;DHT22;53432;51.952;14.740;2022-09-01T04:59:17;15.50;99.90
20520;DHT22;53432;51.952;14.740;2022-09-01T05:01:46;15.50;99.90
20520;DHT22;53432;51.952;14.740;2022-09-01T05:04:17;15.50;99.90
20520;DHT22;53432;51.952;14.740;2022-09-01T05:06:47;15.40;99.90
20520;DHT22;53432;51.952;14.740;2022-09-01T05:09:16;15.40;99.90
20520;DHT22;53432;51.952;14.740;2022-09-01T05:11:44;15.40;99.90
20520;DHT22;53432;51.952;14.740;2022-09-01T05:14:14;15.40;99.90
20520;DHT22;53432;51.952;14.740;2022-09-01T05:16:45;15.30;99.90
20520;DHT22;53432;51.952;14.740;2022-09-01T05:19:21;15.30;99.90
20520;DHT22;53432;51.952;14.740;2022-09-01T05:21:49;15.30;99.90
20520;DHT22;53432;51.952;14.740;2022-09-01T05:24:22;15.30;99.90
20520;DHT22;53432;51.952;14.740;2022-09-01T05:26:55;15.20;99.90
20520;DHT22;53432;51.952;14.740;2022-09-01T05:29:24;15.20;99.90
20520;DHT22;53432;51.952;14.740;2022-09-01T05:31:53;15.10;99.90
20520;DHT22;53432;51.952;14.740;2022-09-01T05:34:21;15.10;99.90
20520;DHT22;53432;51.952;14.740;2022-09-01T05:36:53;15.10;99.90
20520;DHT22;53432;51.952;14.740;2022-09-01T05:39:22;15.10;99.90
20520;DHT22;53432;51.952;14.740;2022-09-01T05:41:50;15.10;99.90
20520;DHT22;53432;51.952;14.740;2022-09-01T05:44:19;15.10;99.90
20520;DHT22;53432;51.952;14.740;2022-09-01T05:46:59;15.10;99.90
20520;DHT22;53432;51.952;14.740;2022-09-01T05:49:27;15.20;99.90
20520;DHT22;53432;51.952;14.740;2022-09-01T05:51:58;15.20;99.90
20520;DHT22;53432;51.952;14.740;2022-09-01T05:54:25;15.30;99.90
20520;DHT22;53432;51.952;14.740;2022-09-01T05:56:54;15.30;99.90
20520;DHT22;53432;51.952;14.740;2022-09-01T05:59:23;15.40;99.90
20520;DHT22;53432;51.952;14.740;2022-09-01T06:01:51;15.40;99.90
20520;DHT22;53432;51.952;14.740;2022-09-01T06:04:22;15.50;99.90
20520;DHT22;53432;51.952;14.740;2022-09-01T06:06:50;15.50;99.90
20520;DHT22;53432;51.952;14.740;2022-09-01T06:09:18;15.40;99.90
20520;DHT22;53432;51.952;14.740;2022-09-01T06:11:48;15.50;99.90
20520;DHT22;53432;51.952;14.740;2022-09-01T06:14:17;15.50;99.90
20520;DHT22;53432;51.952;14.740;2022-09-01T06:16:45;15.50;99.90
20520;DHT22;53432;51.952;14.740;2022-09-01T06:19:13;15.60;99.90
20520;DHT22;53432;51.952;14.740;2022-09-01T06:21:42;15.60;99.90
20520;DHT22;53432;51.952;14.740;2022-09-01T06:24:10;15.60;99.90
20520;DHT22;53432;51.952;14.740;2022-09-01T06:26:37;15.70;99.90
20520;DHT22;53432;51.952;14.740;2022-09-01T06:29:07;15.80;99.90
20520;DHT22;53432;51.952;14.740;2022-09-01T06:31:40;15.80;99.90
20520;DHT22;53432;51.952;14.740;2022-09-01T06:34:11;15.80;99.90
20520;DHT22;53432;51.952;14.740;2022-09-01T06:36:46;15.90;99.90
20520;DHT22;53432;51.952;14.740;2022-09-01T06:39:16;15.90;99.90
20520;DHT22;53432;51.952;14.740;2022-09-01T06:41:45;16.00;99.90
20520;DHT22;53432;51.952;14.740;2022-09-01T06:44:18;16.10;99.90
20520;DHT22;53432;51.952;14.740;2022-09-01T06:46:47;16.20;99.90
20520;DHT22;53432;51.952;14.740;2022-09-01T06:49:15;16.20;99.90
20520;DHT22;53432;51.952;14.740;2022-09-01T06:51:43;16.30;99.90
20520;DHT22;53432;51.952;14.740;2022-09-01T06:54:14;16.50;99.90
20520;DHT22;53432;51.952;14.740;2022-09-01T06:56:42;16.60;99.90
20520;DHT22;53432;51.952;14.740;2022-09-01T06:59:09;16.70;99.90
20520;DHT22;53432;51.952;14.740;2022-09-01T07:01:40;16.80;99.90
20520;DHT22;53432;51.952;14.740;2022-09-01T07:04:08;16.90;99.90
20520;DHT22;53432;51.952;14.740;2022-09-01T07:06:39;17.10;99.90
20520;DHT22;53432;51.952;14.740;2022-09-01T07:09:08;17.10;99.90
20520;DHT22;53432;51.952;14.740;2022-09-01T07:11:36;17.30;99.90
20520;DHT22;53432;51.952;14.740;2022-09-01T07:14:05;17.40;99.90
20520;DHT22;53432;51.952;14.740;2022-09-01T07:16:34;17.50;99.90
20520;DHT22;53432;51.952;14.740;2022-09-01T07:19:02;17.70;99.90
20520;DHT22;53432;51.952;14.740;2022-09-01T07:21:31;17.80;99.90
20520;DHT22;53432;51.952;14.740;2022-09-01T07:23:59;17.90;99.90
20520;DHT22;53432;51.952;14.740;2022-09-01T07:26:31;18.00;99.90
20520;DHT22;53432;51.952;14.740;2022-09-01T07:29:01;18.10;99.90
20520;DHT22;53432;51.952;14.740;2022-09-01T07:31:31;18.10;99.90
20520;DHT22;53432;51.952;14.740;2022-09-01T07:34:05;18.10;99.90
20520;DHT22;53432;51.952;14.740;2022-09-01T07:36:38;18.10;99.90
20520;DHT22;53432;51.952;14.740;2022-09-01T07:39:08;18.00;99.90
20520;DHT22;53432;51.952;14.740;2022-09-01T07:41:37;18.00;99.90
20520;DHT22;53432;51.952;14.740;2022-09-01T07:44:08;18.00;99.90
20520;DHT22;53432;51.952;14.740;2022-09-01T07:46:39;18.10;99.90
20520;DHT22;53432;51.952;14.740;2022-09-01T07:49:07;18.20;99.90
20520;DHT22;53432;51.952;14.740;2022-09-01T07:51:34;18.30;99.90
20520;DHT22;53432;51.952;14.740;2022-09-01T07:54:02;18.50;99.90
20520;DHT22;53432;51.952;14.740;2022-09-01T07:56:30;18.80;99.90
20520;DHT22;53432;51.952;14.740;2022-09-01T07:58:58;19.00;99.90
20520;DHT22;53432;51.952;14.740;2022-09-01T08:01:27;19.20;99.90
20520;DHT22;53432;51.952;14.740;2022-09-01T08:03:56;19.40;99.90
20520;DHT22;53432;51.952;14.740;2022-09-01T08:06:26;19.60;99.90
20520;DHT22;53432;51.952;14.740;2022-09-01T08:08:56;19.80;99.90
20520;DHT22;53432;51.952;14.740;2022-09-01T08:11:25;20.00;99.90
20520;DHT22;53432;51.952;14.740;2022-09-01T08:13:54;20.00;99.90
20520;DHT22;53432;51.952;14.740;2022-09-01T08:16:25;20.10;99.90
20520;DHT22;53432;51.952;14.740;2022-09-01T08:18:53;20.10;99.90
20520;DHT22;53432;51.952;14.740;2022-09-01T08:21:22;20.20;99.90
20520;DHT22;53432;51.952;14.740;2022-09-01T08:23:51;20.30;99.90
20520;DHT22;53432;51.952;14.740;2022-09-01T08:26:20;20.50;99.90
20520;DHT22;53432;51.952;14.740;2022-09-01T08:28:48;20.60;99.90
20520;DHT22;53432;51.952;14.740;2022-09-01T08:31:17;20.90;99.90
20520;DHT22;53432;51.952;14.740;2022-09-01T08:33:48;21.10;99.90
20520;DHT22;53432;51.952;14.740;2022-09-01T08:36:16;21.20;99.90
20520;DHT22;53432;51.952;14.740;2022-09-01T08:38:44;21.40;99.90
20520;DHT22;53432;51.952;14.740;2022-09-01T08:41:16;21.50;99.90
20520;DHT22;53432;51.952;14.740;2022-09-01T08:43:55;21.50;99.90
20520;DHT22;53432;51.952;14.740;2022-09-01T08:46:28;21.50;99.90
20520;DHT22;53432;51.952;14.740;2022-09-01T08:49:00;21.50;99.90
20520;DHT22;53432;51.952;14.740;2022-09-01T08:51:34;21.60;99.90
20520;DHT22;53432;51.952;14.740;2022-09-01T08:54:09;21.70;99.90
20520;DHT22;53432;51.952;14.740;2022-09-01T08:56:41;21.90;99.90
20520;DHT22;53432;51.952;14.740;2022-09-01T08:59:10;21.90;99.90
20520;DHT22;53432;51.952;14.740;2022-09-01T09:01:45;21.90;99.90
20520;DHT22;53432;51.952;14.740;2022-09-01T09:04:25;21.90;99.90
20520;DHT22;53432;51.952;14.740;2022-09-01T09:07:02;22.00;99.90
20520;DHT22;53432;51.952;14.740;2022-09-01T09:09:38;22.00;99.90
20520;DHT22;53432;51.952;14.740;2022-09-01T09:12:26;22.00;99.90
20520;DHT22;53432;51.952;14.740;2022-09-01T09:15:05;22.00;99.90
20520;DHT22;53432;51.952;14.740;2022-09-01T09:17:39;22.00;99.90
20520;DHT22;53432;51.952;14.740;2022-09-01T09:20:09;21.80;99.90
20520;DHT22;53432;51.952;14.740;2022-09-01T09:22:36;21.70;99.90
20520;DHT22;53432;51.952;14.740;2022-09-01T09:25:08;21.50;99.90
20520;DHT22;53432;51.952;14.740;2022-09-01T09:27:37;21.50;99.90
20520;DHT22;53432;51.952;14.740;2022-09-01T09:30:07;21.50;99.90
20520;DHT22;53432;51.952;14.740;2022-09-01T09:32:45;21.60;99.90
20520;DHT22;53432;51.952;14.740;2022-09-01T09:35:22;21.70;99.90
20520;DHT22;53432;51.952;14.740;2022-09-01T09:37:50;21.90;99.90
20520;DHT22;53432;51.952;14.740;2022-09-01T09:40:19;22.00;99.90
20520;DHT22;53432;51.952;14.740;2022-09-01T09:43:03;22.00;99.90
20520;DHT22;53432;51.952;14.740;2022-09-01T09:45:35;22.10;99.90
20520;DHT22;53432;51.952;14.740;2022-09-01T09:48:07;22.00;99.90
20520;DHT22;53432;51.952;14.740;2022-09-01T09:50:38;21.90;99.90
20520;DHT22;53432;51.952;14.740;2022-09-01T09:53:16;21.90;99.90
20520;DHT22;53432;51.952;14.740;2022-09-01T09:55:57;21.80;99.90
20520;DHT22;53432;51.952;14.740;2022-09-01T09:58:28;21.70;99.90
20520;DHT22;53432;51.952;14.740;2022-09-01T10:01:03;21.60;99.90
20520;DHT22;53432;51.952;14.740;2022-09-01T10:03:43;21.50;99.90
20520;DHT22;53432;51.952;14.740;2022-09-01T10:06:31;21.50;99.90
20520;DHT22;53432;51.952;14.740;2022-09-01T10:08:59;21.40;99.90
20520;DHT22;53432;51.952;14.740;2022-09-01T10:11:30;21.40;99.90
20520;DHT22;53432;51.952;14.740;2022-09-01T10:13:59;21.30;99.90
20520;DHT22;53432;51.952;14.740;2022-09-01T10:16:28;21.30;99.90
20520;DHT22;53432;51.952;14.740;2022-09-01T10:18:59;21.30;99.90
20520;DHT22;53432;51.952;14.740;2022-09-01T10:21:32;21.30;99.90
20520;DHT22;53432;51.952;14.740;2022-09-01T10:24:03;21.30;99.90
20520;DHT22;53432;51.952;14.740;2022-09-01T10:26:36;21.50;99.90
20520;DHT22;53432;51.952;14.740;2022-09-01T10:29:07;21.50;99.90
20520;DHT22;53432;51.952;14.740;2022-09-01T10:31:40;21.60;99.90
20520;DHT22;53432;51.952;14.740;2022-09-01T10:34:12;21.80;99.90
20520;DHT22;53432;51.952;14.740;2022-09-01T10:36:44;22.00;99.90
20520;DHT22;53432;51.952;14.740;2022-09-01T10:39:14;22.10;99.90
20520;DHT22;53432;51.952;14.740;2022-09-01T10:41:48;22.30;99.90
20520;DHT22;53432;51.952;14.740;2022-09-01T10:44:22;22.40;99.90
20520;DHT22;53432;51.952;14.740;2022-09-01T10:46:51;22.50;99.90
20520;DHT22;53432;51.952;14.740;2022-09-01T10:52:04;22.70;99.90
20520;DHT22;53432;51.952;14.740;2022-09-01T10:54:56;22.70;99.90
20520;DHT22;53432;51.952;14.740;2022-09-01T10:57:46;22.70;99.90
20520;DHT22;53432;51.952;14.740;2022-09-01T11:00:43;22.60;99.90
20520;DHT22;53432;51.952;14.740;2022-09-01T11:03:36;22.50;99.90
20520;DHT22;53432;51.952;14.740;2022-09-01T11:06:05;22.40;99.90
20520;DHT22;53432;51.952;14.740;2022-09-01T11:09:00;22.20;99.90
20520;DHT22;53432;51.952;14.740;2022-09-01T11:11:34;22.20;99.90
20520;DHT22;53432;51.952;14.740;2022-09-01T11:14:16;22.10;99.90
20520;DHT22;53432;51.952;14.740;2022-09-01T11:17:10;22.00;99.90
20520;DHT22;53432;51.952;14.740;2022-09-01T11:19:43;21.90;99.90
20520;DHT22;53432;51.952;14.740;2022-09-01T11:22:24;21.90;99.90
20520;DHT22;53432;51.952;14.740;2022-09-01T11:30:52;21.80;99.90
20520;DHT22;53432;51.952;14.740;2022-09-01T11:33:34;21.80;99.90
20520;DHT22;53432;51.952;14.740;2022-09-01T11:36:06;21.80;99.90
20520;DHT22;53432;51.952;14.740;2022-09-01T11:38:45;21.70;99.90
20520;DHT22;53432;51.952;14.740;2022-09-01T11:41:22;21.70;99.90
20520;DHT22;53432;51.952;14.740;2022-09-01T11:43:55;21.80;99.90
20520;DHT22;53432;51.952;14.740;2022-09-01T11:46:28;21.70;99.90
20520;DHT22;53432;51.952;14.740;2022-09-01T11:49:07;21.70;99.90
20520;DHT22;53432;51.952;14.740;2022-09-01T11:51:43;21.70;99.90
20520;DHT22;53432;51.952;14.740;2022-09-01T11:54:12;21.70;99.90
20520;DHT22;53432;51.952;14.740;2022-09-01T11:56:42;21.70;99.90
20520;DHT22;53432;51.952;14.740;2022-09-01T11:59:09;21.70;99.90
20520;DHT22;53432;51.952;14.740;2022-09-01T12:01:38;21.70;99.90
20520;DHT22;53432;51.952;14.740;2022-09-01T12:04:20;21.70;99.90
20520;DHT22;53432;51.952;14.740;2022-09-01T12:06:57;21.70;99.90
20520;DHT22;53432;51.952;14.740;2022-09-01T12:09:36;21.80;99.90
20520;DHT22;53432;51.952;14.740;2022-09-01T12:12:06;21.80;99.90
20520;DHT22;53432;51.952;14.740;2022-09-01T12:14:35;21.80;99.90
20520;DHT22;53432;51.952;14.740;2022-09-01T12:17:04;21.80;99.90
20520;DHT22;53432;51.952;14.740;2022-09-01T12:19:33;21.80;99.90
20520;DHT22;53432;51.952;14.740;2022-09-01T12:22:14;21.80;99.90
20520;DHT22;53432;51.952;14.740;2022-09-01T12:24:45;21.80;99.90
20520;DHT22;53432;51.952;14.740;2022-09-01T12:27:14;21.80;99.90
20520;DHT22;53432;51.952;14.740;2022-09-01T12:29:42;21.90;99.90
20520;DHT22;53432;51.952;14.740;2022-09-01T12:32:10;21.90;99.90
20520;DHT22;53432;51.952;14.740;2022-09-01T12:34:40;21.90;99.90
20520;DHT22;53432;51.952;14.740;2022-09-01T12:37:11;21.90;99.90
20520;DHT22;53432;51.952;14.740;2022-09-01T12:39:47;21.90;99.90
20520;DHT22;53432;51.952;14.740;2022-09-01T12:42:25;22.00;99.90
20520;DHT22;53432;51.952;14.740;2022-09-01T12:44:55;22.00;99.90
20520;DHT22;53432;51.952;14.740;2022-09-01T12:47:48;22.10;99.90
20520;DHT22;53432;51.952;14.740;2022-09-01T12:50:35;22.20;99.90
20520;DHT22;53432;51.952;14.740;2022-09-01T12:53:21;22.10;99.90
20520;DHT22;53432;51.952;14.740;2022-09-01T12:58:45;22.10;99.90
20520;DHT22;53432;51.952;14.740;2022-09-01T13:01:25;22.10;99.90
20520;DHT22;53432;51.952;14.740;2022-09-01T13:04:08;22.10;99.90
20520;DHT22;53432;51.952;14.740;2022-09-01T13:06:36;22.20;99.90
20520;DHT22;53432;51.952;14.740;2022-09-01T13:09:03;22.20;99.90
20520;DHT22;53432;51.952;14.740;2022-09-01T13:11:31;22.10;99.90
20520;DHT22;53432;51.952;14.740;2022-09-01T13:14:00;22.10;99.90
20520;DHT22;53432;51.952;14.740;2022-09-01T13:16:28;22.10;99.90
20520;DHT22;53432;51.952;14.740;2022-09-01T13:18:55;22.10;99.90
20520;DHT22;53432;51.952;14.740;2022-09-01T13:21:23;22.10;99.90
20520;DHT22;53432;51.952;14.740;2022-09-01T13:23:50;22.10;99.90
20520;DHT22;53432;51.952;14.740;2022-09-01T13:26:18;22.10;99.90
20520;DHT22;53432;51.952;14.740;2022-09-01T13:28:45;22.10;99.90
20520;DHT22;53432;51.952;14.740;2022-09-01T13:31:14;22.10;99.90
20520;DHT22;53432;51.952;14.740;2022-09-01T13:33:41;22.10;99.90
20520;DHT22;53432;51.952;14.740;2022-09-01T13:36:09;22.10;99.90
20520;DHT22;53432;51.952;14.740;2022-09-01T13:38:38;22.10;99.90
20520;DHT22;53432;51.952;14.740;2022-09-01T13:41:05;22.00;99.90
20520;DHT22;53432;51.952;14.740;2022-09-01T13:43:36;21.90;99.90
20520;DHT22;53432;51.952;14.740;2022-09-01T13:46:03;21.90;99.90
20520;DHT22;53432;51.952;14.740;2022-09-01T13:48:32;21.90;99.90
20520;DHT22;53432;51.952;14.740;2022-09-01T13:51:00;21.70;99.90
20520;DHT22;53432;51.952;14.740;2022-09-01T13:53:28;21.60;99.90
20520;DHT22;53432;51.952;14.740;2022-09-01T13:55:55;21.70;99.90
20520;DHT22;53432;51.952;14.740;2022-09-01T13:58:23;21.80;99.90
20520;DHT22;53432;51.952;14.740;2022-09-01T14:00:50;21.80;99.90
20520;DHT22;53432;51.952;14.740;2022-09-01T14:03:20;21.80;99.90
20520;DHT22;53432;51.952;14.740;2022-09-01T14:05:49;21.80;99.90
20520;DHT22;53432;51.952;14.740;2022-09-01T14:08:18;21.80;99.90
20520;DHT22;53432;51.952;14.740;2022-09-01T14:10:49;21.80;99.90
20520;DHT22;53432;51.952;14.740;2022-09-01T14:13:18;21.80;99.90
20520;DHT22;53432;51.952;14.740;2022-09-01T14:15:45;21.80;99.90
20520;DHT22;53432;51.952;14.740;2022-09-01T14:18:14;21.80;99.90
20520;DHT22;53432;51.952;14.740;2022-09-01T14:20:44;21.80;99.90
20520;DHT22;53432;51.952;14.740;2022-09-01T14:23:14;21.90;99.90
20520;DHT22;53432;51.952;14.740;2022-09-01T14:25:43;21.90;99.90
20520;DHT22;53432;51.952;14.740;2022-09-01T14:28:11;22.00;99.90
20520;DHT22;53432;51.952;14.740;2022-09-01T14:30:39;22.00;99.90
20520;DHT22;53432;51.952;14.740;2022-09-01T14:33:08;22.10;99.90
20520;DHT22;53432;51.952;14.740;2022-09-01T14:35:37;22.10;99.90
20520;DHT22;53432;51.952;14.740;2022-09-01T14:38:06;22.30;99.90
20520;DHT22;53432;51.952;14.740;2022-09-01T14:40:36;22.30;99.90
20520;DHT22;53432;51.952;14.740;2022-09-01T14:43:04;22.50;99.90
20520;DHT22;53432;51.952;14.740;2022-09-01T14:45:32;22.70;99.90
20520;DHT22;53432;51.952;14.740;2022-09-01T14:48:01;22.90;99.90
20520;DHT22;53432;51.952;14.740;2022-09-01T14:50:29;23.00;99.90
20520;DHT22;53432;51.952;14.740;2022-09-01T14:53:00;23.10;99.90
20520;DHT22;53432;51.952;14.740;2022-09-01T14:55:28;23.20;99.90
20520;DHT22;53432;51.952;14.740;2022-09-01T14:57:58;23.30;99.90
20520;DHT22;53432;51.952;14.740;2022-09-01T15:00:26;23.40;99.90
20520;DHT22;53432;51.952;14.740;2022-09-01T15:02:55;23.40;99.90
20520;DHT22;53432;51.952;14.740;2022-09-01T15:05:23;23.50;99.90
20520;DHT22;53432;51.952;14.740;2022-09-01T15:07:51;23.50;99.90
20520;DHT22;53432;51.952;14.740;2022-09-01T15:10:21;23.50;99.90
20520;DHT22;53432;51.952;14.740;2022-09-01T15:12:49;23.50;99.90
20520;DHT22;53432;51.952;14.740;2022-09-01T15:15:18;23.50;99.90
20520;DHT22;53432;51.952;14.740;2022-09-01T15:17:46;23.50;99.90
20520;DHT22;53432;51.952;14.740;2022-09-01T15:20:13;23.50;99.90
20520;DHT22;53432;51.952;14.740;2022-09-01T15:22:59;23.50;99.90
20520;DHT22;53432;51.952;14.740;2022-09-01T15:25:26;23.60;99.90
20520;DHT22;53432;51.952;14.740;2022-09-01T15:27:54;23.70;99.90
20520;DHT22;53432;51.952;14.740;2022-09-01T15:30:23;23.90;99.90
20520;DHT22;53432;51.952;14.740;2022-09-01T15:32:52;24.20;99.90
20520;DHT22;53432;51.952;14.740;2022-09-01T15:35:21;24.40;99.90
20520;DHT22;53432;51.952;14.740;2022-09-01T15:37:50;24.70;99.90
20520;DHT22;53432;51.952;14.740;2022-09-01T15:40:18;25.00;99.90
20520;DHT22;53432;51.952;14.740;2022-09-01T15:42:46;25.30;99.90
20520;DHT22;53432;51.952;14.740;2022-09-01T15:45:15;25.40;99.90
20520;DHT22;53432;51.952;14.740;2022-09-01T15:47:45;25.40;99.90
20520;DHT22;53432;51.952;14.740;2022-09-01T15:50:16;25.40;99.90